sensor_id;sensor_type;location;lat;lon;timestamp;pressure;altitude;pressure_sealevel;temperature;humidity
73284;BME280;61519;60.050;18.582;2024-02-26T00:00:58;100770.78;;;1.17;65.22
73284;BME280;61519;60.050;18.582;2024-02-26T00:03:23;100819.78;;;1.44;65.18
73284;BME280;61519;60.050;18.582;2024-02-26T00:05:50;100797.47;;;1.30;65.08
73284;BME280;61519;60.050;18.582;2024-02-26T00:08:16;100761.91;;;1.09;65.24
73284;BME280;61519;60.050;18.582;2024-02-26T00:10:41;100750.56;;;0.99;65.28
73284;BME280;61519;60.050;18.582;2024-02-26T00:13:07;100766.03;;;1.11;65.25
73284;BME280;61519;60.050;18.582;2024-02-26T00:15:33;100779.16;;;1.10;65.36
73284;BME280;61519;60.050;18.582;2024-02-26T00:18:00;100777.47;;;1.09;65.09
73284;BME280;61519;60.050;18.582;2024-02-26T00:20:26;100809.16;;;1.25;65.32
73284;BME280;61519;60.050;18.582;2024-02-26T00:22:51;100801.59;;;1.22;65.13
73284;BME280;61519;60.050;18.582;2024-02-26T00:25:17;100815.66;;;1.30;65.14
73284;BME280;61519;60.050;18.582;2024-02-26T00:27:42;100806.81;;;1.22;65.26
73284;BME280;61519;60.050;18.582;2024-02-26T00:30:09;100835.38;;;1.33;65.13
73284;BME280;61519;60.050;18.582;2024-02-26T00:32:35;100804.66;;;1.16;65.47
73284;BME280;61519;60.050;18.582;2024-02-26T00:35:00;100838.19;;;1.30;65.20
73284;BME280;61519;60.050;18.582;2024-02-26T00:37:26;100758.78;;;0.81;65.20
73284;BME280;61519;60.050;18.582;2024-02-26T00:39:51;100814.09;;;1.17;65.23
73284;BME280;61519;60.050;18.582;2024-02-26T00:42:18;100764.81;;;0.82;65.21
73284;BME280;61519;60.050;18.582;2024-02-26T00:44:43;100834.41;;;1.23;65.06
73284;BME280;61519;60.050;18.582;2024-02-26T00:47:09;100767.75;;;0.77;64.79
73284;BME280;61519;60.050;18.582;2024-02-26T00:49:34;100823.78;;;1.15;65.43
73284;BME280;61519;60.050;18.582;2024-02-26T00:51:59;100818.31;;;1.07;65.09
73284;BME280;61519;60.050;18.582;2024-02-26T00:54:25;100825.66;;;1.13;65.00
73284;BME280;61519;60.050;18.582;2024-02-26T00:56:50;100798.59;;;0.93;64.99
73284;BME280;61519;60.050;18.582;2024-02-26T00:59:15;100819.28;;;1.06;64.96
73284;BME280;61519;60.050;18.582;2024-02-26T01:01:41;100807.09;;;0.95;65.05
73284;BME280;61519;60.050;18.582;2024-02-26T01:04:06;100825.53;;;1.03;64.80
73284;BME280;61519;60.050;18.582;2024-02-26T01:06:31;100786.16;;;0.74;64.78
73284;BME280;61519;60.050;18.582;2024-02-26T01:08:57;100827.28;;;1.03;65.06
73284;BME280;61519;60.050;18.582;2024-02-26T01:11:22;100805.06;;;0.87;65.17
73284;BME280;61519;60.050;18.582;2024-02-26T01:13:47;100824.94;;;1.00;65.07
73284;BME280;61519;60.050;18.582;2024-02-26T01:16:13;100831.88;;;0.99;64.93
73284;BME280;61519;60.050;18.582;2024-02-26T01:18:38;100805.31;;;0.84;65.20
73284;BME280;61519;60.050;18.582;2024-02-26T01:21:03;100816.03;;;0.91;64.95
73284;BME280;61519;60.050;18.582;2024-02-26T01:23:32;100798.44;;;0.72;64.92
73284;BME280;61519;60.050;18.582;2024-02-26T01:25:57;100796.63;;;0.73;64.93
73284;BME280;61519;60.050;18.582;2024-02-26T01:28:22;100781.16;;;0.60;65.52
73284;BME280;61519;60.050;18.582;2024-02-26T01:30:48;100833.38;;;0.90;64.91
73284;BME280;61519;60.050;18.582;2024-02-26T01:33:13;100835.19;;;0.90;64.98
73284;BME280;61519;60.050;18.582;2024-02-26T01:35:39;100811.56;;;0.82;65.04
73284;BME280;61519;60.050;18.582;2024-02-26T01:38:04;100786.34;;;0.60;65.13
73284;BME280;61519;60.050;18.582;2024-02-26T01:40:30;100819.19;;;0.72;65.04
73284;BME280;61519;60.050;18.582;2024-02-26T01:42:55;100789.06;;;0.59;64.81
73284;BME280;61519;60.050;18.582;2024-02-26T01:45:20;100816.59;;;0.72;65.04
73284;BME280;61519;60.050;18.582;2024-02-26T01:47:52;100780.38;;;0.47;65.17
73284;BME280;61519;60.050;18.582;2024-02-26T01:50:19;100831.47;;;0.81;65.08
73284;BME280;61519;60.050;18.582;2024-02-26T01:52:46;100813.28;;;0.70;64.85
73284;BME280;61519;60.050;18.582;2024-02-26T01:55:13;100810.91;;;0.67;65.32
73284;BME280;61519;60.050;18.582;2024-02-26T01:57:41;100823.44;;;0.73;65.28
73284;BME280;61519;60.050;18.582;2024-02-26T02:00:07;100830.78;;;0.79;65.28
73284;BME280;61519;60.050;18.582;2024-02-26T02:02:33;100816.09;;;0.67;65.23
73284;BME280;61519;60.050;18.582;2024-02-26T02:04:58;100826.28;;;0.70;65.16
73284;BME280;61519;60.050;18.582;2024-02-26T02:07:24;100832.78;;;0.76;65.09
73284;BME280;61519;60.050;18.582;2024-02-26T02:09:50;100788.84;;;0.38;65.05
73284;BME280;61519;60.050;18.582;2024-02-26T02:12:15;100837.38;;;0.72;64.92
73284;BME280;61519;60.050;18.582;2024-02-26T02:14:41;100806.34;;;0.47;65.41
73284;BME280;61519;60.050;18.582;2024-02-26T02:17:07;100813.78;;;0.52;64.66
73284;BME280;61519;60.050;18.582;2024-02-26T02:19:32;100839.44;;;0.67;64.97
73284;BME280;61519;60.050;18.582;2024-02-26T02:21:57;100843.81;;;0.67;64.99
73284;BME280;61519;60.050;18.582;2024-02-26T02:24:23;100846.41;;;0.67;64.98
73284;BME280;61519;60.050;18.582;2024-02-26T02:26:48;100844.88;;;0.64;64.84
73284;BME280;61519;60.050;18.582;2024-02-26T02:29:14;100800.66;;;0.42;65.06
73284;BME280;61519;60.050;18.582;2024-02-26T02:31:40;100823.34;;;0.51;65.28
73284;BME280;61519;60.050;18.582;2024-02-26T02:34:06;100807.41;;;0.45;64.80
73284;BME280;61519;60.050;18.582;2024-02-26T02:36:31;100817.19;;;0.41;65.15
73284;BME280;61519;60.050;18.582;2024-02-26T02:38:56;100808.44;;;0.42;65.13
73284;BME280;61519;60.050;18.582;2024-02-26T02:41:22;100817.88;;;0.43;65.36
73284;BME280;61519;60.050;18.582;2024-02-26T02:43:47;100822.13;;;0.44;65.00
73284;BME280;61519;60.050;18.582;2024-02-26T02:46:12;100833.00;;;0.49;65.25
73284;BME280;61519;60.050;18.582;2024-02-26T02:48:38;100865.66;;;0.64;65.02
73284;BME280;61519;60.050;18.582;2024-02-26T02:51:04;100846.88;;;0.61;65.17
73284;BME280;61519;60.050;18.582;2024-02-26T02:53:29;100843.22;;;0.63;65.20
73284;BME280;61519;60.050;18.582;2024-02-26T02:55:56;100849.22;;;0.64;65.16
73284;BME280;61519;60.050;18.582;2024-02-26T02:58:21;100810.72;;;0.47;64.92
73284;BME280;61519;60.050;18.582;2024-02-26T03:00:47;100861.31;;;0.76;65.14
73284;BME280;61519;60.050;18.582;2024-02-26T03:03:12;100833.06;;;0.60;65.14
73284;BME280;61519;60.050;18.582;2024-02-26T03:05:37;100854.13;;;0.79;65.19
73284;BME280;61519;60.050;18.582;2024-02-26T03:08:03;100826.34;;;0.69;65.15
73284;BME280;61519;60.050;18.582;2024-02-26T03:10:29;100835.09;;;0.68;65.11
73284;BME280;61519;60.050;18.582;2024-02-26T03:12:54;100859.13;;;0.82;65.22
73284;BME280;61519;60.050;18.582;2024-02-26T03:15:19;100839.25;;;0.70;65.44
73284;BME280;61519;60.050;18.582;2024-02-26T03:17:45;100805.34;;;0.61;65.06
73284;BME280;61519;60.050;18.582;2024-02-26T03:20:10;100823.88;;;0.67;64.96
73284;BME280;61519;60.050;18.582;2024-02-26T03:22:38;100855.31;;;0.86;65.00
73284;BME280;61519;60.050;18.582;2024-02-26T03:25:04;100809.72;;;0.60;65.10
73284;BME280;61519;60.050;18.582;2024-02-26T03:27:29;100847.31;;;0.89;65.31
73284;BME280;61519;60.050;18.582;2024-02-26T03:29:54;100808.31;;;0.67;65.13
73284;BME280;61519;60.050;18.582;2024-02-26T03:32:20;100831.47;;;0.81;65.40
73284;BME280;61519;60.050;18.582;2024-02-26T03:34:45;100827.13;;;0.82;65.37
73284;BME280;61519;60.050;18.582;2024-02-26T03:37:10;100829.59;;;0.83;65.40
73284;BME280;61519;60.050;18.582;2024-02-26T03:39:36;100798.63;;;0.58;65.06
73284;BME280;61519;60.050;18.582;2024-02-26T03:42:03;100848.75;;;0.94;65.37
73284;BME280;61519;60.050;18.582;2024-02-26T03:44:28;100768.84;;;0.51;65.04
73284;BME280;61519;60.050;18.582;2024-02-26T03:46:53;100819.22;;;0.83;65.31
73284;BME280;61519;60.050;18.582;2024-02-26T03:49:19;100810.72;;;0.81;65.14
73284;BME280;61519;60.050;18.582;2024-02-26T03:51:44;100803.66;;;0.83;65.60
73284;BME280;61519;60.050;18.582;2024-02-26T03:54:10;100847.47;;;1.10;65.23
73284;BME280;61519;60.050;18.582;2024-02-26T03:56:35;100801.16;;;0.82;65.44
73284;BME280;61519;60.050;18.582;2024-02-26T03:59:00;100844.41;;;1.05;65.29
73284;BME280;61519;60.050;18.582;2024-02-26T04:01:27;100828.69;;;0.96;65.38
73284;BME280;61519;60.050;18.582;2024-02-26T04:03:53;100846.69;;;1.21;65.47
73284;BME280;61519;60.050;18.582;2024-02-26T04:06:18;100842.34;;;1.21;65.51
73284;BME280;61519;60.050;18.582;2024-02-26T04:08:48;100851.44;;;1.27;65.39
73284;BME280;61519;60.050;18.582;2024-02-26T04:11:14;100841.63;;;1.19;65.46
73284;BME280;61519;60.050;18.582;2024-02-26T04:13:43;100829.22;;;1.12;65.29
73284;BME280;61519;60.050;18.582;2024-02-26T04:16:10;100837.25;;;1.20;65.34
73284;BME280;61519;60.050;18.582;2024-02-26T04:18:36;100834.53;;;1.21;65.46
73284;BME280;61519;60.050;18.582;2024-02-26T04:21:02;100849.78;;;1.37;65.47
73284;BME280;61519;60.050;18.582;2024-02-26T04:23:27;100853.56;;;1.44;65.67
73284;BME280;61519;60.050;18.582;2024-02-26T04:25:53;100822.84;;;1.27;65.34
73284;BME280;61519;60.050;18.582;2024-02-26T04:28:19;100861.63;;;1.52;65.58
73284;BME280;61519;60.050;18.582;2024-02-26T04:30:46;100846.03;;;1.41;65.32
73284;BME280;61519;60.050;18.582;2024-02-26T04:33:12;100842.47;;;1.42;65.46
73284;BME280;61519;60.050;18.582;2024-02-26T04:35:37;100852.41;;;1.48;65.49
73284;BME280;61519;60.050;18.582;2024-02-26T04:38:02;100868.72;;;1.61;65.74
73284;BME280;61519;60.050;18.582;2024-02-26T04:40:28;100867.19;;;1.58;65.61
73284;BME280;61519;60.050;18.582;2024-02-26T04:42:53;100831.84;;;1.45;65.47
73284;BME280;61519;60.050;18.582;2024-02-26T04:45:18;100836.69;;;1.38;65.66
73284;BME280;61519;60.050;18.582;2024-02-26T04:47:44;100840.13;;;1.50;65.65
73284;BME280;61519;60.050;18.582;2024-02-26T04:50:09;100857.88;;;1.67;65.82
73284;BME280;61519;60.050;18.582;2024-02-26T04:52:34;100831.50;;;1.49;65.81
73284;BME280;61519;60.050;18.582;2024-02-26T04:55:01;100868.25;;;1.67;65.54
73284;BME280;61519;60.050;18.582;2024-02-26T04:57:27;100823.94;;;1.46;65.54
73284;BME280;61519;60.050;18.582;2024-02-26T04:59:52;100865.06;;;1.74;65.74
73284;BME280;61519;60.050;18.582;2024-02-26T05:02:18;100807.75;;;1.43;65.56
73284;BME280;61519;60.050;18.582;2024-02-26T05:04:43;100841.31;;;1.57;65.74
73284;BME280;61519;60.050;18.582;2024-02-26T05:07:09;100822.63;;;1.52;65.79
73284;BME280;61519;60.050;18.582;2024-02-26T05:09:34;100864.47;;;1.82;66.21
73284;BME280;61519;60.050;18.582;2024-02-26T05:12:00;100860.44;;;1.78;65.61
73284;BME280;61519;60.050;18.582;2024-02-26T05:14:25;100829.03;;;1.59;65.66
73284;BME280;61519;60.050;18.582;2024-02-26T05:16:51;100853.72;;;1.75;65.80
73284;BME280;61519;60.050;18.582;2024-02-26T05:19:16;100845.91;;;1.75;65.90
73284;BME280;61519;60.050;18.582;2024-02-26T05:21:41;100811.75;;;1.58;65.70
73284;BME280;61519;60.050;18.582;2024-02-26T05:24:09;100838.69;;;1.79;65.75
73284;BME280;61519;60.050;18.582;2024-02-26T05:26:34;100833.50;;;1.79;65.86
73284;BME280;61519;60.050;18.582;2024-02-26T05:29:00;100830.41;;;1.85;65.92
73284;BME280;61519;60.050;18.582;2024-02-26T05:31:26;100850.97;;;1.99;65.72
73284;BME280;61519;60.050;18.582;2024-02-26T05:33:52;100828.53;;;1.76;65.73
73284;BME280;61519;60.050;18.582;2024-02-26T05:36:18;100830.41;;;1.85;65.77
73284;BME280;61519;60.050;18.582;2024-02-26T05:38:44;100781.88;;;1.52;65.93
73284;BME280;61519;60.050;18.582;2024-02-26T05:41:11;100851.09;;;1.98;65.84
73284;BME280;61519;60.050;18.582;2024-02-26T05:43:37;100817.44;;;1.74;65.96
73284;BME280;61519;60.050;18.582;2024-02-26T05:46:02;100854.31;;;1.90;65.61
73284;BME280;61519;60.050;18.582;2024-02-26T05:48:28;100824.66;;;1.70;65.76
73284;BME280;61519;60.050;18.582;2024-02-26T05:50:54;100840.13;;;1.83;65.78
73284;BME280;61519;60.050;18.582;2024-02-26T05:53:20;100804.94;;;1.57;66.23
73284;BME280;61519;60.050;18.582;2024-02-26T05:55:45;100861.97;;;1.92;65.99
73284;BME280;61519;60.050;18.582;2024-02-26T05:58:11;100873.56;;;1.99;66.00
73284;BME280;61519;60.050;18.582;2024-02-26T06:00:36;100804.69;;;1.60;65.87
73284;BME280;61519;60.050;18.582;2024-02-26T06:03:01;100857.13;;;1.87;66.02
73284;BME280;61519;60.050;18.582;2024-02-26T06:05:27;100853.47;;;1.90;65.67
73284;BME280;61519;60.050;18.582;2024-02-26T06:07:52;100843.91;;;1.90;65.89
73284;BME280;61519;60.050;18.582;2024-02-26T06:10:18;100835.13;;;1.91;65.95
73284;BME280;61519;60.050;18.582;2024-02-26T06:12:46;100854.50;;;2.09;66.15
73284;BME280;61519;60.050;18.582;2024-02-26T06:15:12;100866.06;;;2.16;65.72
73284;BME280;61519;60.050;18.582;2024-02-26T06:17:38;100855.94;;;2.13;65.69
73284;BME280;61519;60.050;18.582;2024-02-26T06:20:03;100865.38;;;2.25;66.01
73284;BME280;61519;60.050;18.582;2024-02-26T06:22:31;100830.41;;;2.07;65.73
73284;BME280;61519;60.050;18.582;2024-02-26T06:24:56;100834.63;;;2.19;65.41
73284;BME280;61519;60.050;18.582;2024-02-26T06:27:22;100872.19;;;2.48;65.43
73284;BME280;61519;60.050;18.582;2024-02-26T06:29:48;100877.53;;;2.67;65.58
73284;BME280;61519;60.050;18.582;2024-02-26T06:32:13;100866.34;;;2.88;65.03
73284;BME280;61519;60.050;18.582;2024-02-26T06:34:39;100874.06;;;3.10;64.65
73284;BME280;61519;60.050;18.582;2024-02-26T06:37:06;100871.59;;;3.29;64.97
73284;BME280;61519;60.050;18.582;2024-02-26T06:39:31;100855.56;;;3.33;64.68
73284;BME280;61519;60.050;18.582;2024-02-26T06:41:56;100859.19;;;3.42;64.61
73284;BME280;61519;60.050;18.582;2024-02-26T06:44:26;100888.97;;;3.70;64.54
73284;BME280;61519;60.050;18.582;2024-02-26T06:46:57;100861.25;;;3.69;64.39
73284;BME280;61519;60.050;18.582;2024-02-26T06:49:23;100874.78;;;3.83;64.22
73284;BME280;61519;60.050;18.582;2024-02-26T06:51:48;100892.56;;;4.08;63.89
73284;BME280;61519;60.050;18.582;2024-02-26T06:54:14;100895.25;;;4.27;64.38
73284;BME280;61519;60.050;18.582;2024-02-26T06:56:39;100876.59;;;4.41;63.65
73284;BME280;61519;60.050;18.582;2024-02-26T06:59:04;100896.13;;;4.76;63.18
73284;BME280;61519;60.050;18.582;2024-02-26T07:01:30;100854.47;;;4.84;63.13
73284;BME280;61519;60.050;18.582;2024-02-26T07:03:55;100843.34;;;5.01;62.92
73284;BME280;61519;60.050;18.582;2024-02-26T07:06:21;100868.72;;;5.37;62.96
73284;BME280;61519;60.050;18.582;2024-02-26T07:08:46;100884.63;;;5.63;62.68
73284;BME280;61519;60.050;18.582;2024-02-26T07:11:12;100867.41;;;5.70;62.40
73284;BME280;61519;60.050;18.582;2024-02-26T07:13:37;100874.75;;;6.03;62.14
73284;BME280;61519;60.050;18.582;2024-02-26T07:16:03;100865.94;;;6.21;62.02
73284;BME280;61519;60.050;18.582;2024-02-26T07:18:29;100896.75;;;6.82;61.37
73284;BME280;61519;60.050;18.582;2024-02-26T07:20:54;100875.28;;;7.22;61.20
73284;BME280;61519;60.050;18.582;2024-02-26T07:23:19;100885.78;;;8.40;60.39
73284;BME280;61519;60.050;18.582;2024-02-26T07:25:45;100895.59;;;9.52;59.19
73284;BME280;61519;60.050;18.582;2024-02-26T07:28:12;100875.69;;;10.05;58.12
73284;BME280;61519;60.050;18.582;2024-02-26T07:30:37;100864.31;;;10.51;57.51
73284;BME280;61519;60.050;18.582;2024-02-26T07:33:02;100894.53;;;10.71;57.27
73284;BME280;61519;60.050;18.582;2024-02-26T07:35:28;100866.75;;;10.52;57.19
73284;BME280;61519;60.050;18.582;2024-02-26T07:37:53;100877.03;;;10.70;56.93
73284;BME280;61519;60.050;18.582;2024-02-26T07:40:18;100885.72;;;10.79;56.56
73284;BME280;61519;60.050;18.582;2024-02-26T07:42:44;100887.94;;;10.67;56.41
73284;BME280;61519;60.050;18.582;2024-02-26T07:45:09;100889.72;;;10.75;56.38
73284;BME280;61519;60.050;18.582;2024-02-26T07:47:35;100888.75;;;11.13;55.74
73284;BME280;61519;60.050;18.582;2024-02-26T07:50:01;100900.59;;;11.77;54.88
73284;BME280;61519;60.050;18.582;2024-02-26T07:52:26;100897.06;;;11.99;54.68
73284;BME280;61519;60.050;18.582;2024-02-26T07:54:52;100896.84;;;12.15;53.92
73284;BME280;61519;60.050;18.582;2024-02-26T07:57:17;100881.34;;;12.12;54.11
73284;BME280;61519;60.050;18.582;2024-02-26T07:59:43;100906.03;;;12.19;53.82
73284;BME280;61519;60.050;18.582;2024-02-26T08:02:10;100884.63;;;12.14;53.93
73284;BME280;61519;60.050;18.582;2024-02-26T08:04:35;100910.22;;;12.43;53.44
73284;BME280;61519;60.050;18.582;2024-02-26T08:07:00;100916.00;;;12.17;53.44
73284;BME280;61519;60.050;18.582;2024-02-26T08:09:26;100897.25;;;11.60;53.48
73284;BME280;61519;60.050;18.582;2024-02-26T08:11:51;100885.13;;;11.14;53.89
73284;BME280;61519;60.050;18.582;2024-02-26T08:14:17;100889.81;;;10.81;54.14
73284;BME280;61519;60.050;18.582;2024-02-26T08:16:42;100908.09;;;10.60;54.24
73284;BME280;61519;60.050;18.582;2024-02-26T08:19:07;100877.34;;;10.14;54.56
73284;BME280;61519;60.050;18.582;2024-02-26T08:21:35;100911.94;;;10.03;54.25
73284;BME280;61519;60.050;18.582;2024-02-26T08:24:02;100892.28;;;9.58;55.00
73284;BME280;61519;60.050;18.582;2024-02-26T08:26:27;100940.19;;;9.46;55.11
73284;BME280;61519;60.050;18.582;2024-02-26T08:28:52;100959.75;;;9.19;55.38
73284;BME280;61519;60.050;18.582;2024-02-26T08:31:19;100964.28;;;8.85;55.54
73284;BME280;61519;60.050;18.582;2024-02-26T08:33:45;100959.25;;;8.50;55.78
73284;BME280;61519;60.050;18.582;2024-02-26T08:36:11;100941.50;;;8.18;56.01
73284;BME280;61519;60.050;18.582;2024-02-26T08:38:36;100953.50;;;8.21;56.00
73284;BME280;61519;60.050;18.582;2024-02-26T08:41:02;100920.91;;;7.97;55.87
73284;BME280;61519;60.050;18.582;2024-02-26T08:43:28;100921.00;;;7.88;55.66
73284;BME280;61519;60.050;18.582;2024-02-26T08:45:53;100952.25;;;7.99;55.99
73284;BME280;61519;60.050;18.582;2024-02-26T08:48:18;100953.94;;;7.82;56.00
73284;BME280;61519;60.050;18.582;2024-02-26T08:50:44;100952.19;;;7.65;56.37
73284;BME280;61519;60.050;18.582;2024-02-26T08:53:09;100939.03;;;7.40;56.50
73284;BME280;61519;60.050;18.582;2024-02-26T08:55:34;100934.25;;;7.18;56.62
73284;BME280;61519;60.050;18.582;2024-02-26T08:58:00;100977.06;;;7.36;56.34
73284;BME280;61519;60.050;18.582;2024-02-26T09:00:25;100941.84;;;7.03;56.72
73284;BME280;61519;60.050;18.582;2024-02-26T09:02:51;100961.75;;;7.13;56.68
73284;BME280;61519;60.050;18.582;2024-02-26T09:05:16;100976.31;;;7.26;56.82
73284;BME280;61519;60.050;18.582;2024-02-26T09:07:41;100954.56;;;7.16;56.71
73284;BME280;61519;60.050;18.582;2024-02-26T09:10:07;100980.56;;;7.44;56.78
73284;BME280;61519;60.050;18.582;2024-02-26T09:12:36;100953.00;;;7.40;56.60
73284;BME280;61519;60.050;18.582;2024-02-26T09:15:02;100952.44;;;7.54;56.55
73284;BME280;61519;60.050;18.582;2024-02-26T09:17:28;100975.28;;;7.79;56.63
73284;BME280;61519;60.050;18.582;2024-02-26T09:19:53;101009.88;;;8.00;56.39
73284;BME280;61519;60.050;18.582;2024-02-26T09:22:19;100998.84;;;7.97;56.34
73284;BME280;61519;60.050;18.582;2024-02-26T09:24:44;100989.97;;;7.98;56.37
73284;BME280;61519;60.050;18.582;2024-02-26T09:27:09;100958.78;;;7.69;56.48
73284;BME280;61519;60.050;18.582;2024-02-26T09:29:36;101012.81;;;8.23;56.08
73284;BME280;61519;60.050;18.582;2024-02-26T09:32:01;100945.81;;;7.93;56.14
73284;BME280;61519;60.050;18.582;2024-02-26T09:34:27;101003.22;;;8.40;56.29
73284;BME280;61519;60.050;18.582;2024-02-26T09:36:52;100984.72;;;8.24;56.25
73284;BME280;61519;60.050;18.582;2024-02-26T09:39:17;100982.88;;;8.16;56.15
73284;BME280;61519;60.050;18.582;2024-02-26T09:41:49;100971.53;;;8.16;56.28
73284;BME280;61519;60.050;18.582;2024-02-26T09:44:19;100967.22;;;8.32;56.07
73284;BME280;61519;60.050;18.582;2024-02-26T09:46:47;100978.66;;;8.49;55.92
73284;BME280;61519;60.050;18.582;2024-02-26T09:49:14;100991.84;;;8.65;55.86
73284;BME280;61519;60.050;18.582;2024-02-26T09:51:40;101001.41;;;8.74;55.55
73284;BME280;61519;60.050;18.582;2024-02-26T09:54:07;101001.13;;;8.85;55.74
73284;BME280;61519;60.050;18.582;2024-02-26T09:56:35;101012.34;;;9.03;55.57
73284;BME280;61519;60.050;18.582;2024-02-26T09:59:02;100997.56;;;9.10;55.40
73284;BME280;61519;60.050;18.582;2024-02-26T10:01:31;101025.72;;;9.34;55.41
73284;BME280;61519;60.050;18.582;2024-02-26T10:03:59;100953.50;;;8.96;55.40
73284;BME280;61519;60.050;18.582;2024-02-26T10:06:28;101019.97;;;9.38;55.24
73284;BME280;61519;60.050;18.582;2024-02-26T10:08:55;101025.91;;;9.32;55.50
73284;BME280;61519;60.050;18.582;2024-02-26T10:11:23;101022.59;;;9.22;55.35
73284;BME280;61519;60.050;18.582;2024-02-26T10:13:49;100979.41;;;8.83;55.39
73284;BME280;61519;60.050;18.582;2024-02-26T10:16:16;101011.66;;;8.93;55.57
73284;BME280;61519;60.050;18.582;2024-02-26T10:18:51;101006.84;;;8.80;55.67
73284;BME280;61519;60.050;18.582;2024-02-26T10:21:19;101023.81;;;8.86;55.68
73284;BME280;61519;60.050;18.582;2024-02-26T10:23:45;101027.59;;;8.83;55.70
73284;BME280;61519;60.050;18.582;2024-02-26T10:26:11;101026.41;;;8.78;55.82
73284;BME280;61519;60.050;18.582;2024-02-26T10:28:38;101020.47;;;8.68;55.75
73284;BME280;61519;60.050;18.582;2024-02-26T10:31:04;101012.69;;;8.58;55.99
73284;BME280;61519;60.050;18.582;2024-02-26T10:33:30;101016.66;;;8.62;55.94
73284;BME280;61519;60.050;18.582;2024-02-26T10:35:58;101002.97;;;8.51;55.86
73284;BME280;61519;60.050;18.582;2024-02-26T10:38:24;101033.78;;;8.66;56.00
73284;BME280;61519;60.050;18.582;2024-02-26T10:40:49;101016.28;;;8.57;56.00
73284;BME280;61519;60.050;18.582;2024-02-26T10:43:15;101003.66;;;8.53;56.04
73284;BME280;61519;60.050;18.582;2024-02-26T10:45:42;101026.25;;;8.79;56.08
73284;BME280;61519;60.050;18.582;2024-02-26T10:48:13;101022.94;;;8.69;55.84
73284;BME280;61519;60.050;18.582;2024-02-26T10:50:39;101011.53;;;8.53;55.92
73284;BME280;61519;60.050;18.582;2024-02-26T10:53:13;101006.56;;;8.50;56.07
73284;BME280;61519;60.050;18.582;2024-02-26T10:55:40;101028.94;;;8.54;56.21
73284;BME280;61519;60.050;18.582;2024-02-26T10:58:08;101039.78;;;8.59;56.05
73284;BME280;61519;60.050;18.582;2024-02-26T11:00:35;101013.78;;;8.48;56.23
73284;BME280;61519;60.050;18.582;2024-02-26T11:03:02;101034.41;;;8.60;56.34
73284;BME280;61519;60.050;18.582;2024-02-26T11:05:28;101035.19;;;8.61;56.25
73284;BME280;61519;60.050;18.582;2024-02-26T11:07:55;100988.34;;;8.48;56.13
73284;BME280;61519;60.050;18.582;2024-02-26T11:10:21;101014.44;;;8.83;56.18
73284;BME280;61519;60.050;18.582;2024-02-26T11:12:48;101025.50;;;9.03;56.14
73284;BME280;61519;60.050;18.582;2024-02-26T11:15:15;101022.56;;;9.14;56.02
73284;BME280;61519;60.050;18.582;2024-02-26T11:17:42;100990.84;;;9.08;56.08
73284;BME280;61519;60.050;18.582;2024-02-26T11:20:10;101008.47;;;9.31;55.66
73284;BME280;61519;60.050;18.582;2024-02-26T11:22:37;101029.03;;;9.44;55.39
73284;BME280;61519;60.050;18.582;2024-02-26T11:25:03;100989.88;;;9.33;55.56
73284;BME280;61519;60.050;18.582;2024-02-26T11:27:38;100995.63;;;9.44;55.66
73284;BME280;61519;60.050;18.582;2024-02-26T11:30:09;101004.50;;;9.51;55.69
73284;BME280;61519;60.050;18.582;2024-02-26T11:32:35;101023.78;;;9.60;55.49
73284;BME280;61519;60.050;18.582;2024-02-26T11:35:00;101021.97;;;9.52;55.72
73284;BME280;61519;60.050;18.582;2024-02-26T11:37:26;101007.94;;;9.28;55.81
73284;BME280;61519;60.050;18.582;2024-02-26T11:39:52;100996.91;;;9.16;55.67
73284;BME280;61519;60.050;18.582;2024-02-26T11:42:23;101031.81;;;9.26;55.74
73284;BME280;61519;60.050;18.582;2024-02-26T11:44:49;101023.09;;;9.18;55.89
73284;BME280;61519;60.050;18.582;2024-02-26T11:47:22;101002.47;;;8.97;55.90
73284;BME280;61519;60.050;18.582;2024-02-26T11:49:48;101042.94;;;9.04;56.03
73284;BME280;61519;60.050;18.582;2024-02-26T11:52:15;101028.59;;;8.91;56.09
73284;BME280;61519;60.050;18.582;2024-02-26T11:54:51;101020.13;;;8.71;56.10
73284;BME280;61519;60.050;18.582;2024-02-26T11:57:26;101040.19;;;8.72;55.91
73284;BME280;61519;60.050;18.582;2024-02-26T11:59:57;101010.19;;;8.49;56.16
73284;BME280;61519;60.050;18.582;2024-02-26T12:05:16;101044.41;;;8.57;56.18
73284;BME280;61519;60.050;18.582;2024-02-26T12:07:52;101013.09;;;8.38;56.14
73284;BME280;61519;60.050;18.582;2024-02-26T12:10:30;101032.84;;;8.50;56.19
73284;BME280;61519;60.050;18.582;2024-02-26T12:13:02;101031.84;;;8.43;56.25
73284;BME280;61519;60.050;18.582;2024-02-26T12:15:39;101034.19;;;8.54;56.31
73284;BME280;61519;60.050;18.582;2024-02-26T12:18:06;101012.47;;;8.44;56.36
73284;BME280;61519;60.050;18.582;2024-02-26T12:20:39;101014.25;;;8.43;56.26
73284;BME280;61519;60.050;18.582;2024-02-26T12:23:04;101028.97;;;8.62;56.26
73284;BME280;61519;60.050;18.582;2024-02-26T12:25:31;100995.69;;;8.37;56.25
73284;BME280;61519;60.050;18.582;2024-02-26T12:27:58;101012.81;;;8.49;56.31
73284;BME280;61519;60.050;18.582;2024-02-26T12:30:24;101038.50;;;8.63;56.24
73284;BME280;61519;60.050;18.582;2024-02-26T12:32:52;101009.16;;;8.42;56.50
73284;BME280;61519;60.050;18.582;2024-02-26T12:35:25;101043.47;;;8.66;56.63
73284;BME280;61519;60.050;18.582;2024-02-26T12:37:50;101045.09;;;8.67;56.72
73284;BME280;61519;60.050;18.582;2024-02-26T12:40:17;101033.78;;;8.66;56.55
73284;BME280;61519;60.050;18.582;2024-02-26T12:42:42;101045.09;;;8.67;56.61
73284;BME280;61519;60.050;18.582;2024-02-26T12:45:11;101003.75;;;8.43;56.61
73284;BME280;61519;60.050;18.582;2024-02-26T12:47:43;101035.72;;;8.64;56.53